Time;durP1;ratioP1;P1;durP2;ratioP2;P2;SDS_P1;SDS_P2;PMS_P1;PMS_P2;Temp;Humidity;BMP_temperature;BMP_pressure;BME280_temperature;BME280_humidity;BME280_pressure;Samples;Min_cycle;Max_cycle;Signal;HPM_P1;HPM_P2
2021/05/05 00:01:27;;;;;;;6.47;3.63;;;7.20;99.90;;;;;;5035464;28;20053;-78
2021/05/05 00:03:53;;;;;;;7.43;3.67;;;7.20;99.90;;;;;;5034745;28;20088;-77
2021/05/05 00:06:20;;;;;;;9.40;3.78;;;7.20;99.90;;;;;;5035112;28;20096;-78
2021/05/05 00:08:46;;;;;;;4.60;3.72;;;7.10;99.90;;;;;;5034544;28;20132;-77
2021/05/05 00:11:13;;;;;;;7.43;4.07;;;7.10;99.90;;;;;;5038277;28;20077;-77
2021/05/05 00:13:39;;;;;;;6.00;3.88;;;7.20;99.90;;;;;;5039019;28;20502;-79
2021/05/05 00:16:07;;;;;;;7.43;3.80;;;7.20;99.90;;;;;;5042206;28;20109;-80
2021/05/05 00:18:34;;;;;;;5.75;4.03;;;7.10;99.90;;;;;;5037701;28;20417;-77
2021/05/05 00:21:00;;;;;;;5.82;3.85;;;7.20;99.90;;;;;;5039056;28;20421;-79
2021/05/05 00:23:27;;;;;;;6.90;3.88;;;7.20;99.90;;;;;;5043120;28;20053;-78
2021/05/05 00:25:53;;;;;;;5.65;3.40;;;7.20;99.90;;;;;;5042330;28;20752;-78
2021/05/05 00:28:19;;;;;;;5.95;3.58;;;7.20;99.90;;;;;;5037986;28;20057;-79
2021/05/05 00:30:47;;;;;;;5.55;3.47;;;7.30;99.90;;;;;;5038060;28;20103;-80
2021/05/05 00:33:14;;;;;;;7.45;3.83;;;7.20;99.90;;;;;;5038553;28;20426;-79
2021/05/05 00:35:40;;;;;;;4.57;3.38;;;7.20;99.90;;;;;;5039037;28;20137;-78
2021/05/05 00:38:09;;;;;;;6.03;3.80;;;7.20;99.90;;;;;;5038492;28;20088;-79
2021/05/05 00:40:36;;;;;;;6.05;3.90;;;7.20;99.90;;;;;;5038746;28;20139;-80
2021/05/05 00:43:02;;;;;;;9.15;4.13;;;7.10;99.90;;;;;;5038308;28;20049;-79
2021/05/05 00:45:29;;;;;;;9.98;4.10;;;7.00;99.90;;;;;;5038482;28;20183;-79
2021/05/05 00:47:55;;;;;;;7.18;4.18;;;6.90;99.90;;;;;;5059443;23;20140;-79
2021/05/05 00:50:23;;;;;;;10.32;4.88;;;6.90;99.90;;;;;;5037717;28;20049;-78
2021/05/05 00:52:49;;;;;;;11.25;4.50;;;6.90;99.90;;;;;;5038163;28;20128;-79
2021/05/05 00:55:17;;;;;;;7.15;4.65;;;6.90;99.90;;;;;;5037113;28;20140;-79
2021/05/05 00:57:43;;;;;;;9.60;5.05;;;6.80;99.90;;;;;;5035957;28;20421;-79
2021/05/05 01:00:12;;;;;;;8.85;4.22;;;6.80;99.90;;;;;;5036035;28;20088;-79
2021/05/05 01:02:38;;;;;;;9.50;4.68;;;6.80;99.90;;;;;;5035681;28;20552;-78
2021/05/05 01:05:06;;;;;;;8.57;4.65;;;6.80;99.90;;;;;;5035282;28;20101;-78
2021/05/05 01:07:34;;;;;;;8.55;4.43;;;6.80;99.90;;;;;;5034507;28;20506;-79
2021/05/05 01:10:00;;;;;;;7.40;4.55;;;6.80;99.90;;;;;;5034163;28;20088;-78
2021/05/05 01:12:27;;;;;;;7.20;4.07;;;6.80;99.90;;;;;;5036177;28;20426;-79
2021/05/05 01:14:53;;;;;;;7.38;3.90;;;6.80;99.90;;;;;;5035657;28;20052;-78
2021/05/05 01:17:20;;;;;;;8.73;4.15;;;6.80;99.90;;;;;;5034969;28;20492;-78
2021/05/05 01:19:46;;;;;;;7.13;3.90;;;6.80;99.90;;;;;;5034229;28;20053;-78
2021/05/05 01:22:14;;;;;;;9.05;4.22;;;6.80;99.90;;;;;;5034525;28;20064;-78
2021/05/05 01:24:40;;;;;;;8.70;4.43;;;6.80;99.90;;;;;;5034726;28;20144;-77
2021/05/05 01:27:08;;;;;;;10.13;4.47;;;6.80;99.90;;;;;;5034032;28;20083;-78
2021/05/05 01:29:35;;;;;;;12.25;5.13;;;6.80;99.90;;;;;;5034689;28;20517;-78
2021/05/05 01:32:02;;;;;;;8.32;4.47;;;6.90;99.90;;;;;;5033918;28;20128;-78
2021/05/05 01:34:29;;;;;;;6.85;4.40;;;6.90;99.90;;;;;;5033683;28;20058;-78
2021/05/05 01:36:55;;;;;;;8.13;4.80;;;6.90;99.90;;;;;;5033554;28;20252;-77
2021/05/05 01:39:22;;;;;;;7.90;4.68;;;6.90;99.90;;;;;;5034036;28;20204;-78
2021/05/05 01:41:49;;;;;;;8.18;4.28;;;7.00;99.90;;;;;;5033788;28;20052;-78
2021/05/05 01:44:16;;;;;;;8.43;4.40;;;6.90;99.90;;;;;;5033740;28;20049;-78
2021/05/05 01:46:47;;;;;;;5.22;4.15;;;6.90;99.90;;;;;;5033770;28;20068;-77
2021/05/05 01:49:21;;;;;;;7.15;4.40;;;6.90;99.90;;;;;;5034560;28;20151;-78
2021/05/05 01:51:48;;;;;;;11.70;4.50;;;6.80;99.90;;;;;;5033002;28;20088;-78
2021/05/05 01:54:14;;;;;;;8.35;4.85;;;6.90;99.90;;;;;;5033547;28;20092;-79
2021/05/05 01:56:42;;;;;;;8.93;4.70;;;6.90;99.90;;;;;;5033461;28;20087;-79
2021/05/05 01:59:08;;;;;;;9.88;5.30;;;6.90;99.90;;;;;;5033042;28;20053;-78
2021/05/05 02:01:35;;;;;;;8.10;5.30;;;6.80;99.90;;;;;;5032823;28;20132;-80
2021/05/05 02:04:02;;;;;;;14.02;5.55;;;6.80;99.90;;;;;;5032915;28;20506;-78
2021/05/05 02:06:29;;;;;;;11.52;5.75;;;6.70;99.90;;;;;;5032937;28;20132;-78
2021/05/05 02:08:57;;;;;;;9.02;5.80;;;6.70;99.90;;;;;;5032848;28;20045;-78
2021/05/05 02:11:23;;;;;;;10.60;5.82;;;6.60;99.90;;;;;;5033564;28;20528;-78
2021/05/05 02:13:51;;;;;;;10.52;5.85;;;6.60;99.90;;;;;;5033064;28;20140;-78
2021/05/05 02:16:17;;;;;;;10.95;6.00;;;6.60;99.90;;;;;;5033035;28;20053;-78
2021/05/05 02:18:44;;;;;;;11.45;6.00;;;6.60;99.90;;;;;;5033175;28;20117;-78
2021/05/05 02:21:10;;;;;;;9.85;5.63;;;6.50;99.90;;;;;;5033499;28;20572;-77
2021/05/05 02:23:37;;;;;;;10.68;5.88;;;6.50;99.90;;;;;;5033014;28;20132;-78
2021/05/05 02:26:04;;;;;;;12.63;5.15;;;6.50;99.90;;;;;;5033458;28;20565;-78
2021/05/05 02:28:31;;;;;;;9.43;5.32;;;6.50;99.90;;;;;;5032579;28;20049;-77
2021/05/05 02:30:59;;;;;;;9.95;5.20;;;6.50;99.90;;;;;;5032869;28;20053;-78
2021/05/05 02:33:26;;;;;;;8.95;5.53;;;6.50;99.90;;;;;;5032405;28;20136;-78
2021/05/05 02:35:53;;;;;;;12.35;5.03;;;6.50;99.90;;;;;;5033309;28;20613;-78
2021/05/05 02:38:20;;;;;;;9.43;5.18;;;6.50;99.90;;;;;;5032888;28;20418;-78
2021/05/05 02:40:48;;;;;;;13.27;5.40;;;6.50;99.90;;;;;;5033538;28;20160;-78
2021/05/05 02:43:15;;;;;;;8.93;5.28;;;6.50;99.90;;;;;;5033387;28;20049;-77
2021/05/05 02:45:41;;;;;;;8.50;5.40;;;6.40;99.90;;;;;;5033286;28;20076;-78
2021/05/05 02:48:08;;;;;;;7.85;5.32;;;6.40;99.90;;;;;;5032993;28;20480;-78
2021/05/05 02:50:37;;;;;;;12.82;5.60;;;6.40;99.90;;;;;;5032481;28;20126;-77
2021/05/05 02:53:03;;;;;;;11.60;5.53;;;6.40;99.90;;;;;;5032467;28;20368;-77
2021/05/05 02:55:29;;;;;;;12.02;5.35;;;6.40;99.90;;;;;;5031864;28;20132;-77
2021/05/05 02:57:56;;;;;;;8.52;5.80;;;6.40;99.90;;;;;;5031133;28;20514;-77
2021/05/05 03:00:23;;;;;;;11.85;5.28;;;6.50;99.90;;;;;;5031467;28;20232;-77
2021/05/05 03:02:49;;;;;;;10.02;5.47;;;6.50;99.90;;;;;;5031888;28;20052;-76
2021/05/05 03:05:16;;;;;;;16.85;6.65;;;6.50;99.90;;;;;;5031374;28;20087;-76
2021/05/05 03:07:43;;;;;;;11.80;5.80;;;6.50;99.90;;;;;;5031169;28;20053;-77
2021/05/05 03:10:11;;;;;;;13.45;6.50;;;6.50;99.90;;;;;;5031431;28;20077;-77
2021/05/05 03:12:37;;;;;;;14.85;6.00;;;6.50;99.90;;;;;;5031493;28;20077;-77
2021/05/05 03:15:06;;;;;;;12.15;6.47;;;6.50;99.90;;;;;;5031754;28;20042;-78
2021/05/05 03:17:32;;;;;;;12.43;6.45;;;6.50;99.90;;;;;;5032237;28;20133;-78
2021/05/05 03:19:59;;;;;;;9.73;6.30;;;6.50;99.90;;;;;;5032376;28;20089;-78
2021/05/05 03:22:26;;;;;;;10.50;6.50;;;6.40;99.90;;;;;;5032404;28;20136;-78
2021/05/05 03:24:52;;;;;;;12.88;6.70;;;6.40;99.90;;;;;;5032512;28;20521;-78
2021/05/05 03:27:19;;;;;;;10.05;6.18;;;6.40;99.90;;;;;;5034257;28;20060;-76
2021/05/05 03:29:45;;;;;;;12.43;6.07;;;6.40;99.90;;;;;;5032247;28;20477;-76
2021/05/05 03:32:11;;;;;;;15.35;6.45;;;6.40;99.90;;;;;;5032122;28;20049;-78
2021/05/05 03:34:38;;;;;;;10.18;6.35;;;6.40;99.90;;;;;;5031616;28;20514;-79
2021/05/05 03:37:04;;;;;;;11.60;6.82;;;6.40;99.90;;;;;;5031886;28;20045;-78
2021/05/05 03:39:31;;;;;;;13.60;6.65;;;6.40;99.90;;;;;;5031569;28;20096;-78
2021/05/05 03:41:58;;;;;;;10.65;6.22;;;6.40;99.90;;;;;;5032046;28;20313;-78
2021/05/05 03:44:25;;;;;;;14.85;6.57;;;6.40;99.90;;;;;;5034709;28;20145;-78
2021/05/05 03:46:51;;;;;;;11.93;6.47;;;6.30;99.90;;;;;;5035474;28;20136;-78
2021/05/05 03:49:17;;;;;;;16.58;6.15;;;6.40;99.90;;;;;;5036269;28;20546;-77
2021/05/05 03:51:44;;;;;;;13.93;6.68;;;6.40;99.90;;;;;;5036346;28;20459;-78
2021/05/05 03:54:10;;;;;;;14.40;6.80;;;6.40;99.90;;;;;;5036327;28;20479;-78
2021/05/05 03:56:37;;;;;;;15.35;6.22;;;6.40;99.90;;;;;;5035596;28;20348;-78
2021/05/05 03:59:04;;;;;;;14.10;6.88;;;6.30;99.90;;;;;;5035903;28;20084;-78
2021/05/05 04:01:30;;;;;;;12.43;6.70;;;6.30;99.90;;;;;;5035699;28;20113;-79
2021/05/05 04:03:57;;;;;;;11.60;6.68;;;6.40;99.90;;;;;;5036937;28;20133;-78
2021/05/05 04:06:23;;;;;;;9.93;7.07;;;6.40;99.90;;;;;;5035843;28;20242;-79
2021/05/05 04:08:50;;;;;;;15.02;6.53;;;6.40;99.90;;;;;;5036192;28;20049;-80
2021/05/05 04:11:16;;;;;;;19.85;8.57;;;6.40;99.90;;;;;;5036084;28;20061;-79
2021/05/05 04:13:44;;;;;;;13.13;6.72;;;6.40;99.90;;;;;;5036304;28;20053;-78
2021/05/05 04:16:10;;;;;;;13.30;6.80;;;6.40;99.90;;;;;;5035192;28;20051;-78
2021/05/05 04:18:36;;;;;;;12.13;6.80;;;6.40;99.90;;;;;;5035180;28;20128;-78
2021/05/05 04:21:06;;;;;;;11.30;6.72;;;6.40;99.90;;;;;;5035263;28;20057;-78
2021/05/05 04:23:33;;;;;;;13.45;6.60;;;6.40;99.90;;;;;;5034595;28;20100;-76
2021/05/05 04:26:00;;;;;;;12.25;6.65;;;6.40;99.90;;;;;;5034580;28;20042;-77
2021/05/05 04:28:27;;;;;;;12.68;6.88;;;6.50;99.90;;;;;;5034672;28;20136;-77
2021/05/05 04:30:54;;;;;;;14.18;6.82;;;6.40;99.90;;;;;;5034548;28;20136;-77
2021/05/05 04:33:20;;;;;;;11.07;6.65;;;6.40;99.90;;;;;;5035246;28;20136;-78
2021/05/05 04:35:47;;;;;;;12.00;6.85;;;6.50;99.90;;;;;;5034584;28;20410;-77
2021/05/05 04:38:13;;;;;;;15.68;7.57;;;6.50;99.90;;;;;;5034390;28;20487;-79
2021/05/05 04:40:40;;;;;;;15.70;6.90;;;6.50;99.90;;;;;;5034992;28;20054;-78
2021/05/05 04:43:06;;;;;;;11.85;7.15;;;6.50;99.90;;;;;;5035316;28;20079;-77
2021/05/05 04:45:33;;;;;;;15.63;6.80;;;6.50;99.90;;;;;;5036066;28;20076;-75
2021/05/05 04:48:00;;;;;;;10.73;7.00;;;6.50;99.90;;;;;;5036238;28;20050;-78
2021/05/05 04:50:27;;;;;;;10.07;6.75;;;6.60;99.90;;;;;;5037119;28;20144;-77
2021/05/05 04:52:53;;;;;;;13.18;7.20;;;6.60;99.90;;;;;;5041399;28;20060;-77
2021/05/05 04:55:21;;;;;;;15.27;7.30;;;6.60;99.90;;;;;;5043381;28;20050;-78
2021/05/05 04:57:47;;;;;;;11.90;7.13;;;6.70;99.90;;;;;;5044857;28;20085;-78
2021/05/05 05:00:14;;;;;;;15.25;7.35;;;6.70;99.90;;;;;;5048914;28;20051;-78
2021/05/05 05:02:41;;;;;;;14.23;7.40;;;6.80;99.90;;;;;;5048432;28;20054;-79
2021/05/05 05:05:09;;;;;;;14.55;7.28;;;6.90;99.90;;;;;;5040045;28;20073;-79
2021/05/05 05:07:35;;;;;;;13.02;7.95;;;6.80;99.90;;;;;;5040289;28;20092;-78
2021/05/05 05:10:03;;;;;;;12.95;7.13;;;6.80;99.90;;;;;;5039084;28;20091;-78
2021/05/05 05:12:30;;;;;;;11.98;7.20;;;6.80;99.90;;;;;;5039732;28;20099;-78
2021/05/05 05:14:56;;;;;;;12.32;7.03;;;7.10;99.90;;;;;;5036341;28;20057;-77
2021/05/05 05:17:23;;;;;;;13.23;7.47;;;7.30;99.90;;;;;;5034727;28;20593;-77
2021/05/05 05:19:49;;;;;;;10.50;6.80;;;7.40;99.90;;;;;;5034924;28;20085;-78
2021/05/05 05:22:17;;;;;;;13.57;6.93;;;7.50;99.90;;;;;;5034815;28;20089;-78
2021/05/05 05:24:43;;;;;;;11.93;7.25;;;7.60;99.90;;;;;;5035260;28;20429;-76
2021/05/05 05:27:10;;;;;;;18.77;7.70;;;7.60;99.90;;;;;;5033612;28;20054;-77
2021/05/05 05:29:36;;;;;;;13.05;6.90;;;7.60;99.90;;;;;;5034771;28;20100;-83
2021/05/05 05:32:03;;;;;;;10.63;6.55;;;7.70;99.90;;;;;;5033716;28;20081;-81
2021/05/05 05:34:29;;;;;;;13.43;7.65;;;7.70;99.90;;;;;;5033995;28;20427;-79
2021/05/05 05:36:55;;;;;;;15.35;6.60;;;7.60;99.90;;;;;;5034577;28;20132;-79
2021/05/05 05:39:23;;;;;;;15.32;7.63;;;7.60;99.90;;;;;;5035306;28;20057;-79
2021/05/05 05:41:49;;;;;;;11.15;6.65;;;7.50;99.90;;;;;;5035631;28;20053;-78
2021/05/05 05:44:16;;;;;;;16.30;7.82;;;7.60;99.90;;;;;;5028627;28;20049;-80
2021/05/05 05:46:42;;;;;;;17.00;7.03;;;7.60;99.90;;;;;;5034784;28;20073;-79
2021/05/05 05:49:09;;;;;;;13.93;7.38;;;7.50;99.90;;;;;;5035686;28;20513;-80
2021/05/05 05:51:36;;;;;;;13.63;7.30;;;7.50;99.90;;;;;;5036017;28;20049;-80
2021/05/05 05:54:03;;;;;;;13.02;7.70;;;7.60;99.90;;;;;;5035564;28;20105;-80
2021/05/05 05:56:30;;;;;;;15.70;7.88;;;7.80;99.90;;;;;;5035878;28;20696;-79
2021/05/05 05:59:10;;;;;;;13.02;7.40;;;7.90;99.90;;;;;;5036893;28;20136;-80
2021/05/05 06:01:37;;;;;;;19.55;8.13;;;7.90;99.90;;;;;;5034767;28;20046;-79
2021/05/05 06:04:04;;;;;;;14.60;8.02;;;8.10;99.90;;;;;;5030830;28;20065;-79
2021/05/05 06:06:30;;;;;;;18.73;7.40;;;8.20;99.90;;;;;;5026177;28;20161;-79
2021/05/05 06:08:57;;;;;;;14.65;7.05;;;8.30;99.90;;;;;;5039229;28;20203;-79
2021/05/05 06:11:23;;;;;;;19.27;8.38;;;8.20;99.90;;;;;;5036836;28;20061;-80
2021/05/05 06:13:50;;;;;;;20.80;7.80;;;8.20;99.90;;;;;;5019967;28;20105;-78
2021/05/05 06:16:18;;;;;;;16.15;7.70;;;8.20;99.90;;;;;;5019116;28;20189;-78
2021/05/05 06:18:44;;;;;;;18.13;8.20;;;8.40;99.90;;;;;;5026297;28;20080;-80
2021/05/05 06:21:11;;;;;;;12.38;7.45;;;8.60;99.90;;;;;;5025790;28;20050;-78
2021/05/05 06:23:37;;;;;;;12.27;7.40;;;8.70;99.90;;;;;;5012296;28;20077;-78
2021/05/05 06:26:04;;;;;;;16.10;8.27;;;8.50;99.90;;;;;;5027931;28;20620;-79
2021/05/05 06:28:30;;;;;;;17.55;8.52;;;8.50;99.90;;;;;;5015856;28;20143;-79
2021/05/05 06:30:58;;;;;;;13.65;9.23;;;8.40;99.90;;;;;;5014139;28;20056;-79
2021/05/05 06:33:25;;;;;;;11.73;8.40;;;8.40;99.90;;;;;;5015045;28;20054;-78
2021/05/05 06:35:51;;;;;;;14.70;8.52;;;8.40;99.90;;;;;;5012755;28;20499;-78
2021/05/05 06:38:18;;;;;;;12.90;7.85;;;8.40;99.90;;;;;;5013290;28;20519;-77
2021/05/05 06:40:44;;;;;;;15.32;7.60;;;8.50;99.90;;;;;;5012712;28;20057;-79
2021/05/05 06:43:12;;;;;;;10.98;7.88;;;8.70;99.90;;;;;;5012285;28;20124;-80
2021/05/05 06:45:38;;;;;;;13.65;7.60;;;9.10;99.90;;;;;;5012538;28;20045;-76
2021/05/05 06:48:06;;;;;;;15.57;7.93;;;9.30;99.90;;;;;;5013213;28;20053;-78
2021/05/05 06:50:33;;;;;;;14.90;10.57;;;9.10;99.90;;;;;;5012822;28;20133;-80
2021/05/05 06:52:59;;;;;;;12.45;9.25;;;8.90;99.90;;;;;;5011393;28;20052;-79
2021/05/05 06:55:26;;;;;;;10.00;6.78;;;8.60;99.90;;;;;;5012141;28;20133;-79
2021/05/05 06:57:53;;;;;;;7.03;4.60;;;8.30;99.90;;;;;;5012182;28;20081;-77
2021/05/05 07:00:20;;;;;;;5.68;3.53;;;7.80;99.90;;;;;;5013180;28;20077;-78
2021/05/05 07:02:47;;;;;;;4.18;2.92;;;7.60;99.90;;;;;;5011760;28;20053;-78
2021/05/05 07:05:14;;;;;;;3.80;2.90;;;7.40;99.90;;;;;;5012027;28;20096;-78
2021/05/05 07:07:41;;;;;;;5.35;3.13;;;7.30;99.90;;;;;;5013158;28;20233;-78
2021/05/05 07:10:10;;;;;;;5.63;3.17;;;7.30;99.90;;;;;;5013745;28;20050;-78
2021/05/05 07:12:37;;;;;;;4.40;2.85;;;7.20;99.90;;;;;;5011339;28;20152;-78
2021/05/05 07:15:06;;;;;;;4.55;3.30;;;7.20;99.90;;;;;;5011933;28;20474;-79
2021/05/05 07:17:33;;;;;;;4.53;3.45;;;7.30;99.90;;;;;;5011613;28;20058;-79
2021/05/05 07:19:59;;;;;;;8.95;4.82;;;7.30;99.90;;;;;;5012276;28;20157;-79
2021/05/05 07:22:27;;;;;;;10.65;5.97;;;7.40;99.90;;;;;;5011481;28;20141;-79
2021/05/05 07:24:53;;;;;;;8.98;5.88;;;7.50;99.90;;;;;;5012519;28;20050;-82
2021/05/05 07:27:20;;;;;;;10.00;6.00;;;7.80;99.90;;;;;;5014330;28;20446;-78
2021/05/05 07:29:46;;;;;;;10.35;5.90;;;8.20;99.90;;;;;;5013239;28;20050;-79
2021/05/05 07:32:13;;;;;;;9.98;5.90;;;8.70;99.90;;;;;;5014246;28;20061;-79
2021/05/05 07:34:42;;;;;;;8.73;5.68;;;9.50;99.90;;;;;;5016035;28;20149;-79
2021/05/05 07:37:11;;;;;;;9.30;6.32;;;10.40;99.90;;;;;;5015789;28;20060;-79
2021/05/05 07:40:05;;;;;;;9.60;6.00;;;10.50;99.90;;;;;;5047589;28;20128;-78
2021/05/05 07:43:28;;;;;;;9.32;6.00;;;10.20;99.90;;;;;;5050364;28;20083;-77
2021/05/05 07:46:05;;;;;;;12.48;6.43;;;9.60;99.90;;;;;;5049916;28;20491;-78
2021/05/05 07:48:37;;;;;;;9.70;6.57;;;9.20;99.90;;;;;;5050560;28;20148;-79
2021/05/05 07:51:04;;;;;;;10.13;7.28;;;8.90;99.90;;;;;;5050606;28;20347;-78
2021/05/05 07:53:30;;;;;;;15.15;6.75;;;8.80;99.90;;;;;;5050117;28;20085;-79
2021/05/05 07:55:59;;;;;;;15.35;7.45;;;8.60;99.90;;;;;;5043931;28;20057;-78
2021/05/05 07:58:26;;;;;;;10.10;6.93;;;8.60;99.90;;;;;;5048811;28;20060;-78
2021/05/05 08:00:53;;;;;;;10.23;6.93;;;8.60;99.90;;;;;;5051095;28;20296;-79
2021/05/05 08:03:20;;;;;;;21.27;8.85;;;8.60;99.90;;;;;;5043989;28;20152;-78
2021/05/05 08:05:46;;;;;;;7.82;5.57;;;8.80;99.90;;;;;;5047901;28;20508;-77
2021/05/05 08:08:13;;;;;;;8.43;6.00;;;8.80;99.90;;;;;;5047017;28;20045;-76
2021/05/05 08:10:39;;;;;;;9.48;4.75;;;8.60;99.90;;;;;;5050964;28;20524;-75
2021/05/05 08:13:07;;;;;;;7.65;5.00;;;7.90;99.90;;;;;;5049632;28;20421;-77
2021/05/05 08:15:34;;;;;;;9.30;5.65;;;7.40;99.90;;;;;;5034804;28;20053;-75
2021/05/05 08:18:01;;;;;;;9.13;6.10;;;7.00;99.90;;;;;;5048925;28;20049;-77
2021/05/05 08:20:27;;;;;;;8.48;6.38;;;6.80;99.90;;;;;;5038680;28;20160;-76
2021/05/05 08:22:53;;;;;;;6.40;5.30;;;6.80;99.90;;;;;;5023979;28;20574;-76
2021/05/05 08:25:20;;;;;;;10.10;5.15;;;6.80;99.90;;;;;;5037064;28;20150;-78
2021/05/05 08:27:46;;;;;;;7.03;4.95;;;6.80;99.90;;;;;;5046192;28;20378;-77
2021/05/05 08:30:16;;;;;;;6.15;4.78;;;6.80;99.90;;;;;;5034451;28;20049;-77
2021/05/05 08:32:42;;;;;;;8.38;4.30;;;6.80;99.90;;;;;;5033561;28;20119;-79
2021/05/05 08:35:10;;;;;;;5.47;3.78;;;6.80;99.90;;;;;;5035616;28;20124;-78
2021/05/05 08:37:36;;;;;;;5.78;3.83;;;6.80;99.90;;;;;;5035900;28;20128;-78
2021/05/05 08:40:04;;;;;;;5.32;3.83;;;6.90;99.90;;;;;;5032383;28;20045;-77
2021/05/05 08:42:30;;;;;;;7.22;4.35;;;7.00;99.90;;;;;;5032835;28;20056;-80
2021/05/05 08:44:57;;;;;;;8.80;4.60;;;7.00;99.90;;;;;;5038264;28;20244;-81
2021/05/05 08:47:24;;;;;;;7.13;4.93;;;7.00;99.90;;;;;;5034424;28;20387;-77
2021/05/05 08:49:51;;;;;;;7.75;5.88;;;6.90;99.90;;;;;;5030482;28;20542;-77
2021/05/05 08:52:17;;;;;;;9.70;6.00;;;7.00;99.90;;;;;;5020519;28;20493;-77
2021/05/05 08:54:43;;;;;;;8.25;6.75;;;7.00;99.90;;;;;;5035630;28;20053;-81
2021/05/05 08:57:10;;;;;;;9.05;7.45;;;7.10;99.90;;;;;;5033699;28;20082;-78
2021/05/05 08:59:38;;;;;;;7.82;5.93;;;7.10;99.90;;;;;;5036626;28;20103;-78
2021/05/05 09:02:04;;;;;;;8.68;5.50;;;7.30;99.90;;;;;;5036194;28;20049;-77
2021/05/05 09:04:34;;;;;;;6.45;5.40;;;7.70;99.90;;;;;;5037448;28;20141;-79
2021/05/05 09:07:01;;;;;;;7.82;5.05;;;8.30;99.90;;;;;;5019469;28;20046;-83
2021/05/05 09:09:43;;;;;;;7.70;5.10;;;8.90;99.90;;;;;;5019381;28;20073;-78
2021/05/05 09:12:16;;;;;;;6.95;4.97;;;9.50;99.90;;;;;;5018066;28;20474;-76
2021/05/05 09:14:57;;;;;;;9.07;5.45;;;9.50;99.90;;;;;;5036221;28;20104;-78
2021/05/05 09:17:26;;;;;;;8.98;6.30;;;9.70;99.90;;;;;;5025112;28;20046;-76
2021/05/05 09:20:23;;;;;;;10.05;6.57;;;10.00;99.90;;;;;;5017044;28;20054;-76
2021/05/05 09:22:52;;;;;;;6.43;4.60;;;10.00;99.90;;;;;;5015530;28;20535;-78
2021/05/05 09:25:22;;;;;;;13.40;5.10;;;10.10;99.90;;;;;;5035579;28;20057;-78
2021/05/05 09:28:08;;;;;;;7.93;4.60;;;10.40;99.90;;;;;;5028337;28;20072;-79
2021/05/05 09:30:36;;;;;;;7.00;3.80;;;10.60;99.90;;;;;;5032306;28;20072;-76
2021/05/05 09:33:03;;;;;;;11.90;4.47;;;10.80;99.90;;;;;;5035767;28;20084;-76
2021/05/05 09:35:31;;;;;;;17.83;6.60;;;10.50;99.90;;;;;;5035667;28;20088;-77
2021/05/05 09:37:59;;;;;;;14.40;5.78;;;10.40;99.90;;;;;;5035374;28;20092;-77
2021/05/05 09:40:26;;;;;;;16.35;5.55;;;10.20;99.90;;;;;;5036479;28;20528;-78
2021/05/05 09:42:53;;;;;;;22.58;5.72;;;10.00;99.90;;;;;;5034949;28;20052;-77
2021/05/05 09:45:20;;;;;;;17.27;5.20;;;9.90;99.90;;;;;;5036291;28;20053;-77
2021/05/05 09:47:50;;;;;;;10.00;5.00;;;10.00;99.90;;;;;;5033806;28;20081;-77
2021/05/05 09:50:35;;;;;;;10.88;5.80;;;9.80;99.90;;;;;;5034727;28;20045;-77
2021/05/05 09:53:19;;;;;;;11.63;5.40;;;9.80;99.90;;;;;;5035193;28;20104;-77
2021/05/05 09:55:47;;;;;;;8.95;4.97;;;9.90;99.90;;;;;;5034806;28;20096;-79
2021/05/05 09:58:25;;;;;;;7.53;5.35;;;10.00;99.90;;;;;;5032982;28;20137;-78
2021/05/05 10:01:20;;;;;;;10.70;5.47;;;10.20;99.90;;;;;;5034969;28;20140;-76
2021/05/05 10:03:48;;;;;;;13.75;7.28;;;10.30;99.90;;;;;;5036729;28;20457;-78
2021/05/05 10:06:23;;;;;;;9.20;5.82;;;10.50;99.90;;;;;;5037007;28;20046;-78
2021/05/05 10:08:51;;;;;;;16.20;6.55;;;10.50;99.90;;;;;;5036014;28;20053;-78
2021/05/05 10:11:22;;;;;;;10.38;5.07;;;10.70;99.90;;;;;;5034812;28;20502;-76
2021/05/05 10:13:51;;;;;;;11.52;5.13;;;10.80;99.90;;;;;;5034063;28;20113;-78
2021/05/05 10:16:17;;;;;;;13.02;5.68;;;10.80;99.90;;;;;;5034547;28;20405;-79
2021/05/05 10:18:46;;;;;;;13.55;6.10;;;10.70;99.90;;;;;;5034339;28;20124;-78
2021/05/05 10:21:14;;;;;;;11.05;5.95;;;10.40;99.90;;;;;;5033434;28;20123;-78
2021/05/05 10:23:42;;;;;;;9.55;6.15;;;10.20;99.90;;;;;;5033037;28;20128;-76
2021/05/05 10:26:09;;;;;;;12.15;5.45;;;10.30;99.90;;;;;;5034567;28;20135;-77
2021/05/05 10:28:36;;;;;;;8.55;5.35;;;10.50;99.90;;;;;;5033702;28;20494;-78
2021/05/05 10:31:03;;;;;;;11.18;5.80;;;10.50;99.90;;;;;;5033775;28;20085;-78
2021/05/05 10:33:36;;;;;;;9.35;5.20;;;10.70;99.90;;;;;;5033405;28;20069;-78
2021/05/05 10:36:33;;;;;;;10.45;5.13;;;10.70;99.90;;;;;;5033052;28;20045;-78
2021/05/05 10:39:01;;;;;;;7.18;4.75;;;10.90;99.90;;;;;;5032932;28;20529;-77
2021/05/05 10:41:28;;;;;;;13.50;4.68;;;11.20;99.90;;;;;;5032202;28;20534;-77
2021/05/05 10:43:57;;;;;;;7.05;4.72;;;11.40;99.90;;;;;;5031709;28;20063;-78
2021/05/05 10:46:29;;;;;;;7.55;4.47;;;11.50;99.90;;;;;;5031706;28;20052;-75
2021/05/05 10:49:16;;;;;;;10.27;4.63;;;11.90;99.90;;;;;;5032550;28;20501;-79
2021/05/05 10:51:59;;;;;;;7.50;4.50;;;12.10;99.90;;;;;;5026789;28;20136;-78
2021/05/05 10:54:51;;;;;;;11.75;4.53;;;12.20;99.90;;;;;;5030940;28;20072;-79
2021/05/05 10:57:18;;;;;;;10.60;4.25;;;12.10;99.90;;;;;;5032315;28;20190;-78
2021/05/05 11:00:12;;;;;;;11.57;3.88;;;11.80;99.90;;;;;;5032955;28;20088;-77
2021/05/05 11:02:51;;;;;;;9.75;4.57;;;11.60;99.90;;;;;;5032344;28;20131;-79
2021/05/05 11:05:20;;;;;;;6.45;4.20;;;11.40;99.90;;;;;;5032673;28;20076;-78
2021/05/05 11:07:50;;;;;;;11.38;4.32;;;11.40;99.90;;;;;;5032651;28;20443;-79
2021/05/05 11:10:46;;;;;;;6.47;4.20;;;11.50;99.90;;;;;;5033636;28;20132;-79
2021/05/05 11:13:39;;;;;;;7.05;3.97;;;11.60;99.90;;;;;;5032273;28;20192;-79
2021/05/05 11:16:05;;;;;;;9.87;4.33;;;11.80;99.90;;;;;;5034655;28;20132;-79
2021/05/05 11:18:43;;;;;;;8.07;4.70;;;12.00;99.90;;;;;;5032365;28;20791;-78
2021/05/05 11:21:32;;;;;;;8.45;4.97;;;12.00;99.90;;;;;;5034049;28;20155;-78
2021/05/05 11:23:58;;;;;;;6.47;4.43;;;11.80;99.90;;;;;;5032099;28;20107;-78
2021/05/05 11:26:27;;;;;;;5.75;3.92;;;11.70;99.90;;;;;;5031654;28;20079;-77
2021/05/05 11:28:56;;;;;;;9.90;4.90;;;11.70;99.90;;;;;;5032258;28;20128;-80
2021/05/05 11:32:04;;;;;;;9.00;4.40;;;11.70;99.90;;;;;;5032714;28;20050;-77
2021/05/05 11:34:31;;;;;;;10.68;4.57;;;11.70;99.90;;;;;;5031200;28;20092;-78
2021/05/05 11:37:11;;;;;;;8.48;4.40;;;11.80;99.90;;;;;;5031811;28;20053;-76
2021/05/05 11:39:39;;;;;;;11.43;4.28;;;11.90;99.90;;;;;;5033260;28;20136;-78
2021/05/05 11:42:11;;;;;;;9.55;4.20;;;12.10;99.90;;;;;;5032114;28;20132;-78
2021/05/05 11:44:40;;;;;;;11.63;4.70;;;12.00;99.90;;;;;;5032207;28;20049;-78
2021/05/05 11:47:09;;;;;;;9.20;4.43;;;12.00;99.90;;;;;;5033180;28;20620;-78
2021/05/05 11:49:37;;;;;;;7.63;4.70;;;11.90;99.90;;;;;;5033480;28;20057;-78
2021/05/05 11:52:24;;;;;;;8.20;4.78;;;11.70;99.90;;;;;;5032347;28;20137;-78
2021/05/05 11:54:52;;;;;;;11.00;4.75;;;11.70;99.90;;;;;;5032165;28;20081;-78
2021/05/05 11:57:20;;;;;;;9.25;4.85;;;11.40;99.90;;;;;;5031722;28;20057;-77
2021/05/05 11:59:46;;;;;;;8.68;4.65;;;11.40;99.90;;;;;;5032334;28;20136;-77
2021/05/05 12:02:12;;;;;;;13.80;4.90;;;11.50;99.90;;;;;;5031463;28;20050;-78
2021/05/05 12:04:41;;;;;;;8.15;5.20;;;11.50;99.90;;;;;;5032216;28;20088;-77
2021/05/05 12:07:09;;;;;;;9.30;4.47;;;11.80;99.90;;;;;;5035386;28;20050;-78
2021/05/05 12:09:37;;;;;;;8.68;4.75;;;12.10;99.90;;;;;;5035892;28;20621;-78
2021/05/05 12:12:33;;;;;;;9.10;4.57;;;12.20;99.90;;;;;;5036139;28;20163;-76
2021/05/05 12:15:04;;;;;;;9.02;4.70;;;12.30;99.90;;;;;;5031242;28;20132;-78
2021/05/05 12:17:33;;;;;;;7.85;4.57;;;12.40;99.90;;;;;;5036606;28;20073;-78
2021/05/05 12:20:09;;;;;;;12.57;4.43;;;12.30;99.90;;;;;;5036609;28;20053;-78
2021/05/05 12:22:38;;;;;;;7.65;4.38;;;12.00;99.90;;;;;;5035192;28;20053;-78
2021/05/05 12:25:10;;;;;;;7.75;4.53;;;12.10;99.90;;;;;;5035576;28;20087;-78
2021/05/05 12:27:37;;;;;;;7.03;3.58;;;12.20;99.90;;;;;;5036439;28;20045;-78
2021/05/05 12:30:07;;;;;;;9.25;4.57;;;12.30;99.90;;;;;;5036816;28;20060;-79
2021/05/05 12:32:44;;;;;;;7.70;4.32;;;12.50;99.90;;;;;;5034751;28;20053;-77
2021/05/05 12:35:11;;;;;;;8.73;4.28;;;12.80;99.90;;;;;;5036581;28;20095;-78
2021/05/05 12:37:38;;;;;;;8.57;4.57;;;12.70;99.90;;;;;;5034644;28;20137;-79
2021/05/05 12:40:08;;;;;;;3.78;2.95;;;12.50;99.90;;;;;;5035811;28;20060;-77
2021/05/05 12:42:35;;;;;;;5.53;3.22;;;11.90;99.90;;;;;;5036416;28;20064;-77
2021/05/05 12:45:12;;;;;;;8.00;3.22;;;11.50;99.90;;;;;;5036486;28;20103;-77
2021/05/05 12:50:22;;;;;;;5.35;3.20;;;11.40;99.90;;;;;;5074974;23;20452;-79
2021/05/05 12:52:51;;;;;;;5.35;2.90;;;11.50;99.90;;;;;;5026336;28;20096;-81
2021/05/05 12:55:29;;;;;;;5.30;3.30;;;11.40;99.90;;;;;;5022964;28;20050;-80
2021/05/05 12:58:31;;;;;;;;;;;;;;;;;;;;;
2021/05/05 13:01:27;;;;;;;7.07;3.87;;;11.00;99.90;;;;;;5024247;28;20053;-80
2021/05/05 13:03:53;;;;;;;4.90;3.75;;;11.00;99.90;;;;;;5019191;28;20046;-80